Taintor, Iowa
Current Conditions -  °F | °C
As of 10:55 AM on Thursday 23 Oct 2014 (Local Time) from KPEA Reporting Station
Scattered Clouds Scattered Clouds  
Wind Chill: 59°   Ceiling: Unl
Heat Index: 59°   Visibility: 10mi
Dew Point: 53°   Wind: 7mph
Humidity: 80%   Direction: 210°SSW
Pressure: 30.08"   Gusts: NA
Location:  41.465°N, 92.7016°W
Report Text: KPEA 231555Z AUTO 21006KT 10SM SCT011 SCT095 15/11 A3008 RMK AO2 T01480114
Loading
Personal Weather Stations






























Interactive Weather Map
Tropical Storm Tracking
New forecast layout! Learn more

10-Day Weather Forecast

Advertisements
Track Severe Weather on mobile